createdAt,value
2023-06-07T04:00:38.240Z,48.07
2023-06-07T04:01:39.139Z,47.97
2023-06-07T04:02:39.164Z,47.66
2023-06-07T04:03:39.357Z,47.66
2023-06-07T04:04:39.254Z,47.86
2023-06-07T04:05:39.104Z,47.77
2023-06-07T04:06:39.088Z,47.77
2023-06-07T04:07:39.089Z,47.77
2023-06-07T04:08:39.079Z,47.77
2023-06-07T04:09:39.059Z,47.66
2023-06-07T04:10:39.047Z,47.46
2023-06-07T04:11:39.041Z,47.34
2023-06-07T04:12:39.032Z,47.44
2023-06-07T04:13:39.077Z,47.56
2023-06-07T04:14:39.022Z,47.54
2023-06-07T04:15:39.043Z,47.46
2023-06-07T04:16:39.034Z,47.46
2023-06-07T04:17:38.995Z,47.64
2023-06-07T04:18:38.960Z,48.07
2023-06-07T04:19:43.015Z,47.94
2023-06-07T04:20:38.956Z,47.54
2023-06-07T04:21:38.940Z,48.05
2023-06-07T04:22:38.951Z,48.05
2023-06-07T04:23:38.905Z,48.05
2023-06-07T04:24:38.928Z,47.94
2023-06-07T04:25:38.882Z,47.24
2023-06-07T04:26:38.867Z,47.44
2023-06-07T04:27:38.895Z,47.34
2023-06-07T04:28:38.863Z,47.42
2023-06-07T04:29:38.870Z,47.22
2023-06-07T04:30:38.829Z,46.92
2023-06-07T04:31:40.682Z,47.12
2023-06-07T04:32:38.877Z,47.12
2023-06-07T04:33:38.790Z,47.12
2023-06-07T04:34:38.802Z,47.32
2023-06-07T04:35:38.781Z,46.92
2023-06-07T04:36:38.853Z,46.92
2023-06-07T04:37:38.760Z,46.72
2023-06-07T04:38:54.047Z,46.92
2023-06-07T04:39:38.733Z,47.22
2023-06-07T04:40:38.747Z,47.12
2023-06-07T04:41:38.702Z,46.61
2023-06-07T04:42:38.701Z,46.80
2023-06-07T04:43:38.681Z,47.00
2023-06-07T04:44:38.707Z,46.29
2023-06-07T04:45:38.668Z,46.49
2023-06-07T04:46:38.660Z,46.17
2023-06-07T04:47:38.687Z,45.59
2023-06-07T04:48:38.637Z,45.39
2023-06-07T04:49:38.630Z,45.37
2023-06-07T04:50:38.617Z,45.67
2023-06-07T04:51:38.595Z,45.97
2023-06-07T04:52:38.575Z,46.07
2023-06-07T04:53:38.566Z,46.15
2023-06-07T04:54:38.562Z,45.84
2023-06-07T04:55:38.549Z,45.25
2023-06-07T04:56:38.555Z,45.54
2023-06-07T04:57:38.539Z,45.45
2023-06-07T04:58:38.512Z,45.14
2023-06-07T04:59:38.509Z,44.92
2023-06-07T05:00:38.520Z,45.12
2023-06-07T05:01:38.620Z,45.32
2023-06-07T05:02:38.501Z,44.62
2023-06-07T05:03:40.711Z,44.62
2023-06-07T05:04:38.457Z,44.82
2023-06-07T05:05:38.608Z,44.52
2023-06-07T05:06:38.559Z,44.92
2023-06-07T05:07:38.435Z,45.62
2023-06-07T05:08:38.398Z,45.53
2023-06-07T05:09:38.452Z,45.22
2023-06-07T05:10:38.385Z,45.30
2023-06-07T05:11:38.394Z,44.70
2023-06-07T05:12:38.364Z,45.50
2023-06-07T05:13:38.384Z,44.00
2023-06-07T05:14:38.419Z,44.72
2023-06-07T05:15:38.364Z,45.32
2023-06-07T05:16:39.450Z,44.42
2023-06-07T05:17:38.400Z,44.92
2023-06-07T05:18:38.319Z,44.72
2023-06-07T05:19:38.300Z,44.52
2023-06-07T05:20:38.283Z,44.12
2023-06-07T05:21:38.264Z,44.72
2023-06-07T05:22:38.360Z,44.32
2023-06-07T05:23:38.350Z,44.12
2023-06-07T05:24:38.214Z,44.32
2023-06-07T05:25:38.218Z,44.42
2023-06-07T05:26:38.200Z,44.82
2023-06-07T05:27:38.260Z,44.62
2023-06-07T05:28:38.196Z,44.84
2023-06-07T05:29:38.165Z,44.62
2023-06-07T05:30:38.194Z,45.02
2023-06-07T05:31:38.221Z,44.62
2023-06-07T05:32:38.291Z,44.82
2023-06-07T05:33:38.147Z,44.72
2023-06-07T05:34:38.141Z,44.62
2023-06-07T05:35:38.332Z,46.42
2023-06-07T05:36:38.102Z,44.72
2023-06-07T05:37:38.094Z,44.62
2023-06-07T05:38:38.125Z,45.53
2023-06-07T05:39:38.937Z,45.12
2023-06-07T05:40:38.095Z,44.82
2023-06-07T05:41:38.043Z,44.82
2023-06-07T05:42:38.028Z,45.62
2023-06-07T05:43:38.008Z,45.32
2023-06-07T05:44:38.067Z,45.22
2023-06-07T05:45:37.988Z,45.12
2023-06-07T05:46:38.066Z,45.42
2023-06-07T05:47:38.013Z,44.72
2023-06-07T05:48:37.944Z,44.70
2023-06-07T05:49:38.000Z,44.82
2023-06-07T05:50:39.007Z,45.80
2023-06-07T05:51:37.986Z,45.50
2023-06-07T05:52:38.016Z,45.10
2023-06-07T05:53:37.971Z,46.00
2023-06-07T05:54:37.978Z,45.40
2023-06-07T05:55:38.042Z,45.02
2023-06-07T05:56:37.896Z,44.52
2023-06-07T05:57:38.036Z,44.92
2023-06-07T05:58:37.883Z,44.92
2023-06-07T05:59:37.899Z,45.22
2023-06-07T06:00:37.863Z,45.62
2023-06-07T06:01:37.929Z,45.75
2023-06-07T06:02:38.021Z,46.15
2023-06-07T06:03:37.904Z,45.75
2023-06-07T06:04:37.919Z,46.35
2023-06-07T06:05:37.887Z,46.04
2023-06-07T06:06:37.834Z,46.12
2023-06-07T06:07:37.735Z,46.83
2023-06-07T06:08:37.733Z,46.42
2023-06-07T06:09:37.700Z,46.03
2023-06-07T06:10:37.723Z,46.53
2023-06-07T06:11:37.699Z,44.82
2023-06-07T06:12:37.787Z,45.83
2023-06-07T06:13:37.735Z,45.62
2023-06-07T06:14:37.654Z,45.32
2023-06-07T06:15:37.770Z,44.92
2023-06-07T06:16:37.689Z,45.42
2023-06-07T06:17:37.677Z,45.42
2023-06-07T06:18:37.629Z,45.62
2023-06-07T06:19:37.613Z,45.72
2023-06-07T06:20:37.657Z,45.70
2023-06-07T06:21:37.705Z,45.30
2023-06-07T06:22:37.591Z,45.70
2023-06-07T06:23:37.645Z,46.20
2023-06-07T06:24:37.533Z,45.50
2023-06-07T06:25:38.314Z,45.50
2023-06-07T06:26:37.554Z,45.38
2023-06-07T06:27:37.554Z,45.38
2023-06-07T06:28:37.561Z,44.58
2023-06-07T06:29:37.507Z,44.98
2023-06-07T06:30:37.519Z,44.48
2023-06-07T06:31:37.556Z,44.46
2023-06-07T06:32:37.564Z,44.86
2023-06-07T06:33:37.498Z,44.66
2023-06-07T06:34:37.491Z,43.76
2023-06-07T06:35:37.460Z,43.76
2023-06-07T06:36:37.433Z,43.85
2023-06-07T06:37:37.438Z,43.66
2023-06-07T06:38:37.413Z,43.54
2023-06-07T06:39:37.401Z,43.63
2023-06-07T06:40:37.363Z,44.43
2023-06-07T06:41:37.349Z,43.84
2023-06-07T06:42:37.373Z,43.04
2023-06-07T06:43:37.322Z,43.24
2023-06-07T06:44:37.306Z,42.54
2023-06-07T06:45:37.331Z,43.21
2023-06-07T06:46:37.397Z,43.41
2023-06-07T06:47:37.461Z,42.91
2023-06-07T06:48:37.350Z,42.82
2023-06-07T06:49:37.319Z,42.91
2023-06-07T06:50:37.802Z,42.21
2023-06-07T06:51:37.336Z,41.71
2023-06-07T06:52:37.372Z,42.61
2023-06-07T06:53:37.249Z,42.32
2023-06-07T06:54:37.230Z,42.41
2023-06-07T06:55:37.336Z,42.10
2023-06-07T06:56:37.224Z,42.90
2023-06-07T06:57:37.276Z,42.99
2023-06-07T06:58:37.166Z,42.38
2023-06-07T06:59:37.145Z,42.18
2023-06-07T07:00:37.141Z,41.17
2023-06-07T07:01:37.223Z,41.58
2023-06-07T07:02:37.137Z,41.38
2023-06-07T07:03:37.161Z,41.47
2023-06-07T07:04:37.209Z,41.17
2023-06-07T07:05:37.138Z,41.55
2023-06-07T07:06:37.143Z,42.46
2023-06-07T07:07:37.131Z,41.88
2023-06-07T07:08:37.079Z,41.08
2023-06-07T07:09:37.055Z,40.97
2023-06-07T07:10:37.184Z,40.58
2023-06-07T07:11:37.063Z,40.78
2023-06-07T07:12:37.002Z,40.75
2023-06-07T07:13:37.107Z,40.25
2023-06-07T07:14:37.012Z,40.25
2023-06-07T07:15:37.019Z,40.45
2023-06-07T07:16:39.089Z,40.56
2023-06-07T07:17:37.186Z,39.76
2023-06-07T07:18:37.019Z,39.67
2023-06-07T07:19:37.009Z,39.76
2023-06-07T07:20:36.971Z,39.76
2023-06-07T07:21:37.036Z,40.36
2023-06-07T07:22:36.969Z,39.95
2023-06-07T07:23:37.383Z,39.95
2023-06-07T07:24:36.876Z,39.54
2023-06-07T07:25:36.913Z,39.54
2023-06-07T07:26:37.041Z,39.02
2023-06-07T07:27:36.899Z,38.42
2023-06-07T07:28:36.843Z,38.82
2023-06-07T07:29:36.831Z,38.90
2023-06-07T07:30:36.811Z,38.70
2023-06-07T07:31:36.807Z,38.70
2023-06-07T07:32:36.851Z,39.10
2023-06-07T07:33:36.785Z,38.80
2023-06-07T07:34:38.562Z,38.70
2023-06-07T07:35:36.799Z,38.31
2023-06-07T07:36:37.349Z,37.90
2023-06-07T07:37:36.750Z,38.40
2023-06-07T07:38:36.759Z,38.10
2023-06-07T07:39:36.727Z,37.81
2023-06-07T07:40:36.703Z,37.92
2023-06-07T07:41:36.695Z,38.92
2023-06-07T07:42:36.684Z,38.40
2023-06-07T07:43:38.320Z,38.29
2023-06-07T07:44:36.656Z,37.88
2023-06-07T07:45:36.697Z,37.17
2023-06-07T07:46:36.829Z,37.67
2023-06-07T07:47:36.679Z,37.45
2023-06-07T07:48:36.697Z,37.35
2023-06-07T07:49:36.926Z,37.77
2023-06-07T07:50:36.637Z,38.15
2023-06-07T07:51:36.624Z,38.05
2023-06-07T07:52:36.573Z,37.55
2023-06-07T07:53:36.589Z,36.85
2023-06-07T07:54:36.588Z,37.15
2023-06-07T07:55:36.603Z,37.55
2023-06-07T07:56:36.607Z,37.75
2023-06-07T07:57:36.617Z,37.45
2023-06-07T07:58:36.585Z,37.45
2023-06-07T07:59:36.502Z,37.65
2023-06-07T08:00:36.490Z,37.53
2023-06-07T08:01:37.515Z,36.76
2023-06-07T08:02:36.522Z,37.15
2023-06-07T08:03:36.729Z,37.35
2023-06-07T08:04:36.506Z,37.55
2023-06-07T08:05:36.561Z,37.25
2023-06-07T08:06:37.292Z,37.35
2023-06-07T08:07:37.482Z,37.65
2023-06-07T08:08:37.427Z,37.55
2023-06-07T08:09:36.444Z,37.55
2023-06-07T08:10:36.394Z,37.73
2023-06-07T08:11:36.447Z,36.74
2023-06-07T08:12:37.578Z,37.04
2023-06-07T08:13:36.363Z,37.51
2023-06-07T08:14:36.322Z,37.12
2023-06-07T08:15:36.332Z,36.50
2023-06-07T08:16:36.448Z,36.30
2023-06-07T08:17:36.345Z,36.52
2023-06-07T08:18:36.444Z,36.62
2023-06-07T08:19:36.332Z,36.42
2023-06-07T08:20:36.260Z,36.92
2023-06-07T08:21:36.424Z,36.72
2023-06-07T08:22:36.276Z,36.72
2023-06-07T08:23:36.338Z,36.92
2023-06-07T08:24:36.290Z,37.51
2023-06-07T08:25:36.540Z,37.12
2023-06-07T08:26:36.275Z,36.74
2023-06-07T08:27:36.711Z,36.74
2023-06-07T08:28:36.204Z,37.04
2023-06-07T08:29:40.868Z,37.43
2023-06-07T08:30:37.975Z,36.74
2023-06-07T08:31:36.944Z,36.83
2023-06-07T08:32:36.553Z,36.83
2023-06-07T08:33:36.115Z,37.63
2023-06-07T08:34:36.147Z,36.74
2023-06-07T08:35:36.139Z,36.72
2023-06-07T08:36:36.095Z,36.92
2023-06-07T08:37:37.864Z,36.80
2023-06-07T08:38:37.056Z,37.38
2023-06-07T08:39:36.115Z,36.78
2023-06-07T08:40:36.351Z,35.67
2023-06-07T08:41:36.094Z,36.07
2023-06-07T08:42:36.052Z,35.66
2023-06-07T08:43:36.078Z,35.36
2023-06-07T08:44:36.049Z,34.94
2023-06-07T08:45:35.997Z,35.83
2023-06-07T08:46:36.093Z,33.45
2023-06-07T08:47:36.017Z,34.64
2023-06-07T08:48:36.489Z,34.43
2023-06-07T08:49:35.986Z,35.22
2023-06-07T08:50:35.925Z,34.83
2023-06-07T08:51:35.932Z,34.92
2023-06-07T08:52:35.920Z,35.11
2023-06-07T08:53:35.958Z,34.01
2023-06-07T08:54:36.491Z,33.40
2023-06-07T08:55:35.871Z,32.40
2023-06-07T08:56:35.985Z,32.48
2023-06-07T08:57:35.854Z,32.37
2023-06-07T08:58:35.854Z,31.97
2023-06-07T08:59:35.908Z,32.15
2023-06-07T09:00:35.850Z,31.46
2023-06-07T09:01:35.931Z,31.65
2023-06-07T09:02:35.831Z,30.33
2023-06-07T09:03:35.934Z,30.32
2023-06-07T09:04:35.821Z,29.91
2023-06-07T09:05:35.790Z,30.09
2023-06-07T09:06:35.763Z,28.89
2023-06-07T09:07:35.752Z,28.38
2023-06-07T09:08:35.775Z,27.99
2023-06-07T09:09:35.743Z,28.27
2023-06-07T09:10:35.715Z,28.27
2023-06-07T09:11:35.743Z,27.96
2023-06-07T09:12:35.697Z,28.26
2023-06-07T09:13:35.690Z,27.67
2023-06-07T09:14:35.718Z,27.76
2023-06-07T09:15:35.670Z,27.45
2023-06-07T09:16:35.812Z,27.45
2023-06-07T09:17:35.934Z,27.45
2023-06-07T09:18:35.676Z,27.26
2023-06-07T09:19:35.671Z,27.64
2023-06-07T09:20:35.610Z,27.45
2023-06-07T09:21:35.610Z,28.50
2023-06-07T09:22:35.593Z,29.68
2023-06-07T09:23:35.596Z,28.78
2023-06-07T09:24:35.617Z,28.99
2023-06-07T09:25:35.591Z,29.09
2023-06-07T09:26:35.543Z,29.38
2023-06-07T09:27:35.527Z,29.27
2023-06-07T09:28:35.587Z,28.58
2023-06-07T09:29:35.557Z,29.35
2023-06-07T09:30:35.524Z,28.36
2023-06-07T09:31:35.529Z,27.85
2023-06-07T09:32:35.515Z,27.36
2023-06-07T09:33:35.518Z,28.05
2023-06-07T09:34:35.482Z,27.94
2023-06-07T09:35:35.478Z,27.53
2023-06-07T09:36:35.548Z,27.25
2023-06-07T09:37:35.485Z,27.85
2023-06-07T09:38:35.465Z,27.95
2023-06-07T09:39:35.409Z,27.54
2023-06-07T09:40:35.388Z,28.33
2023-06-07T09:41:35.455Z,27.56
2023-06-07T09:42:35.384Z,28.45
2023-06-07T09:43:35.429Z,27.95
2023-06-07T09:44:35.411Z,27.47
2023-06-07T09:45:35.430Z,27.67
2023-06-07T09:46:35.426Z,27.67
2023-06-07T09:47:35.536Z,27.86
2023-06-07T09:48:35.453Z,27.86
2023-06-07T09:49:35.589Z,28.06
2023-06-07T09:50:35.284Z,27.57
2023-06-07T09:51:35.285Z,27.97
2023-06-07T09:52:35.353Z,28.79
2023-06-07T09:53:35.305Z,29.39
2023-06-07T09:54:35.353Z,29.92
2023-06-07T09:55:35.306Z,30.61
2023-06-07T09:56:35.284Z,30.21
2023-06-07T09:57:35.240Z,30.51
2023-06-07T09:58:35.260Z,30.69
2023-06-07T09:59:35.221Z,29.89
2023-06-07T10:00:35.431Z,28.99
2023-06-07T10:01:35.217Z,28.97
2023-06-07T10:02:35.198Z,28.09
2023-06-07T10:03:35.219Z,28.58
2023-06-07T10:04:35.250Z,28.59
2023-06-07T10:05:35.172Z,28.88
2023-06-07T10:06:35.119Z,29.27
2023-06-07T10:07:35.103Z,29.25
2023-06-07T10:08:35.162Z,28.55
2023-06-07T10:09:35.091Z,28.66
2023-06-07T10:10:35.117Z,29.07
2023-06-07T10:11:35.072Z,29.28
2023-06-07T10:12:35.095Z,29.66
2023-06-07T10:13:35.132Z,29.37
2023-06-07T10:14:35.112Z,29.16
2023-06-07T10:15:35.051Z,28.65
2023-06-07T10:16:35.087Z,28.24
2023-06-07T10:17:35.070Z,27.95
2023-06-07T10:18:35.011Z,26.85
2023-06-07T10:19:34.998Z,26.67
2023-06-07T10:20:34.983Z,26.28
2023-06-07T10:21:35.017Z,26.48
2023-06-07T10:22:34.978Z,26.88
2023-06-07T10:23:35.003Z,27.08
2023-06-07T10:24:35.011Z,26.67
2023-06-07T10:25:34.919Z,27.27
2023-06-07T10:26:35.057Z,27.17
2023-06-07T10:27:34.942Z,26.77
2023-06-07T10:28:34.866Z,27.64
2023-06-07T10:29:34.908Z,26.93
2023-06-07T10:30:34.926Z,27.25
2023-06-07T10:31:34.918Z,27.66
2023-06-07T10:32:34.993Z,28.16
2023-06-07T10:33:34.915Z,28.24
2023-06-07T10:34:34.805Z,28.92
2023-06-07T10:35:34.871Z,28.02
2023-06-07T10:36:34.873Z,26.92
2023-06-07T10:37:34.820Z,25.93
2023-06-07T10:38:34.825Z,25.13
2023-06-07T10:39:34.880Z,23.95
2023-06-07T10:40:34.793Z,24.33
2023-06-07T10:41:34.798Z,24.36
2023-06-07T10:42:34.759Z,25.18
2023-06-07T10:43:34.788Z,25.99
2023-06-07T10:44:34.707Z,26.82
2023-06-07T10:45:34.720Z,27.31
2023-06-07T10:46:34.800Z,27.78
2023-06-07T10:47:34.729Z,27.08
2023-06-07T10:48:34.702Z,26.68
2023-06-07T10:49:34.658Z,27.08
2023-06-07T10:50:34.699Z,27.28
2023-06-07T10:51:34.684Z,27.50
2023-06-07T10:52:34.627Z,27.20
2023-06-07T10:53:34.681Z,27.00
2023-06-07T10:54:34.603Z,27.89
2023-06-07T10:55:34.686Z,27.48
2023-06-07T10:56:34.606Z,28.14
2023-06-07T10:57:34.590Z,26.09
2023-06-07T10:58:34.565Z,25.99
2023-06-07T10:59:34.732Z,26.51
2023-06-07T11:00:34.584Z,28.37
2023-06-07T11:01:34.598Z,28.14
2023-06-07T11:02:34.661Z,25.96
2023-06-07T11:03:34.735Z,25.08
2023-06-07T11:04:34.702Z,25.29
2023-06-07T11:05:34.643Z,25.49
2023-06-07T11:06:34.526Z,26.18
2023-06-07T11:07:34.487Z,27.25
2023-06-07T11:08:34.519Z,26.93
2023-06-07T11:09:34.434Z,26.14
2023-06-07T11:10:34.588Z,26.52
2023-06-07T11:11:34.416Z,25.92
2023-06-07T11:12:34.567Z,25.81
2023-06-07T11:13:34.404Z,24.73
2023-06-07T11:14:34.493Z,25.01
2023-06-07T11:15:34.410Z,24.11
2023-06-07T11:16:34.523Z,24.41
2023-06-07T11:17:34.431Z,23.91
2023-06-07T11:18:34.408Z,22.94
2023-06-07T11:19:34.374Z,24.41
2023-06-07T11:20:34.320Z,24.31
2023-06-07T11:21:34.322Z,24.20
2023-06-07T11:22:34.318Z,24.49
2023-06-07T11:23:34.331Z,24.10
2023-06-07T11:24:34.406Z,23.72
2023-06-07T11:25:34.378Z,24.62
2023-06-07T11:26:34.265Z,24.91
2023-06-07T11:27:34.266Z,24.13
2023-06-07T11:28:34.939Z,24.24
2023-06-07T11:29:34.256Z,25.43
2023-06-07T11:30:34.247Z,25.55
2023-06-07T11:31:34.247Z,25.85
2023-06-07T11:32:34.365Z,25.55
2023-06-07T11:33:34.874Z,25.07
2023-06-07T11:34:34.352Z,26.05
2023-06-07T11:35:34.268Z,26.05
2023-06-07T11:36:34.172Z,26.25
2023-06-07T11:37:34.214Z,25.87
2023-06-07T11:38:34.213Z,26.82
2023-06-07T11:39:34.174Z,26.03
2023-06-07T11:40:34.163Z,25.62
2023-06-07T11:41:34.134Z,25.52
2023-06-07T11:42:34.146Z,25.33
2023-06-07T11:43:34.173Z,25.24
2023-06-07T11:44:34.103Z,25.34
2023-06-07T11:45:34.062Z,25.63
2023-06-07T11:46:34.098Z,25.63
2023-06-07T11:47:34.226Z,26.01
2023-06-07T11:48:34.098Z,25.02
2023-06-07T11:49:34.043Z,24.99
2023-06-07T11:50:34.045Z,23.92
2023-06-07T11:51:34.038Z,23.92
2023-06-07T11:52:34.116Z,23.63
2023-06-07T11:53:34.005Z,24.01
2023-06-07T11:54:33.993Z,23.90
2023-06-07T11:55:34.008Z,23.88
2023-06-07T11:56:33.945Z,23.28
2023-06-07T11:57:34.045Z,23.75
2023-06-07T11:58:33.943Z,22.66
2023-06-07T11:59:33.919Z,22.36
2023-06-07T12:00:33.891Z,22.27
2023-06-07T12:01:33.898Z,22.66
2023-06-07T12:02:34.038Z,22.46
2023-06-07T12:03:33.982Z,22.06
2023-06-07T12:04:33.918Z,22.17
2023-06-07T12:05:33.848Z,21.58
2023-06-07T12:06:33.852Z,21.88
2023-06-07T12:07:33.819Z,21.97
2023-06-07T12:08:33.839Z,22.66
2023-06-07T12:09:33.824Z,22.94
2023-06-07T12:10:33.796Z,22.14
2023-06-07T12:11:33.786Z,21.66
2023-06-07T12:12:33.769Z,22.53
2023-06-07T12:13:33.794Z,21.64
2023-06-07T12:14:33.759Z,21.25
2023-06-07T12:15:34.546Z,20.95
2023-06-07T12:16:33.880Z,20.94
2023-06-07T12:17:33.725Z,21.39
2023-06-07T12:18:33.704Z,22.71
2023-06-07T12:19:33.712Z,23.20
2023-06-07T12:20:33.695Z,23.88
2023-06-07T12:21:33.678Z,23.79
2023-06-07T12:22:33.670Z,23.79
2023-06-07T12:23:33.733Z,24.29
2023-06-07T12:24:33.645Z,23.79
2023-06-07T12:25:33.716Z,23.87
2023-06-07T12:26:33.635Z,22.97
2023-06-07T12:27:33.640Z,22.86
2023-06-07T12:28:33.671Z,22.19
2023-06-07T12:29:33.595Z,23.60
2023-06-07T12:30:33.609Z,23.72
2023-06-07T12:31:33.602Z,24.59
2023-06-07T12:32:33.597Z,23.60
2023-06-07T12:33:33.570Z,23.70
2023-06-07T12:34:33.560Z,23.48
2023-06-07T12:35:33.552Z,23.66
2023-06-07T12:36:33.523Z,22.77
2023-06-07T12:37:33.622Z,22.67
2023-06-07T12:38:33.505Z,22.66
2023-06-07T12:39:33.519Z,21.66
2023-06-07T12:40:33.524Z,21.36
2023-06-07T12:41:33.543Z,22.69
2023-06-07T12:42:33.470Z,23.70
2023-06-07T12:43:33.478Z,24.13
2023-06-07T12:44:33.473Z,24.01
2023-06-07T12:45:33.469Z,23.99
2023-06-07T12:46:33.448Z,24.38
2023-06-07T12:47:33.414Z,24.71
2023-06-07T12:48:33.400Z,25.43
2023-06-07T12:49:33.406Z,26.11
2023-06-07T12:50:33.385Z,25.78
2023-06-07T12:51:33.372Z,23.97
2023-06-07T12:52:33.391Z,23.64
2023-06-07T12:53:33.403Z,22.47
2023-06-07T12:54:33.393Z,23.37
2023-06-07T12:55:33.311Z,23.83
2023-06-07T12:56:33.340Z,22.07
2023-06-07T12:57:33.323Z,22.95
2023-06-07T12:58:33.298Z,21.74
2023-06-07T12:59:33.280Z,21.66
2023-06-07T13:00:33.855Z,21.34
2023-06-07T13:01:33.358Z,21.12
2023-06-07T13:02:33.353Z,20.53
2023-06-07T13:03:33.366Z,21.53
2023-06-07T13:04:33.270Z,21.64
2023-06-07T13:05:33.282Z,22.92
2023-06-07T13:06:33.239Z,22.35
2023-06-07T13:07:33.224Z,22.07
2023-06-07T13:08:33.204Z,23.55
2023-06-07T13:09:33.369Z,22.66
2023-06-07T13:10:33.212Z,22.34
2023-06-07T13:11:33.206Z,20.86
2023-06-07T13:12:33.154Z,21.05
2023-06-07T13:13:33.202Z,20.56
2023-06-07T13:14:33.142Z,20.56
2023-06-07T13:15:33.134Z,20.84
2023-06-07T13:16:33.299Z,21.78
2023-06-07T13:17:33.273Z,23.49
2023-06-07T13:18:33.101Z,24.52
2023-06-07T13:19:33.124Z,24.41
2023-06-07T13:20:33.077Z,24.81
2023-06-07T13:21:33.112Z,25.32
2023-06-07T13:22:33.077Z,25.72
2023-06-07T13:23:33.142Z,25.92
2023-06-07T13:24:33.073Z,26.11
2023-06-07T13:25:33.097Z,25.50
2023-06-07T13:26:33.218Z,24.79
2023-06-07T13:27:33.010Z,23.88
2023-06-07T13:28:33.013Z,24.01
2023-06-07T13:29:32.994Z,24.40
2023-06-07T13:30:33.014Z,24.09
2023-06-07T13:31:33.008Z,23.97
2023-06-07T13:32:33.055Z,23.36
2023-06-07T13:33:32.955Z,23.14
2023-06-07T13:34:32.990Z,21.84
2023-06-07T13:35:36.015Z,22.31
2023-06-07T13:36:32.914Z,20.64
2023-06-07T13:37:33.561Z,20.72
2023-06-07T13:38:33.758Z,20.01
2023-06-07T13:39:32.922Z,19.13
2023-06-07T13:40:32.910Z,19.43
2023-06-07T13:41:32.894Z,19.23
2023-06-07T13:42:32.896Z,19.32
2023-06-07T13:43:49.401Z,19.55
2023-06-07T13:44:32.858Z,20.35
2023-06-07T13:45:32.834Z,20.52
2023-06-07T13:46:32.893Z,19.53
2023-06-07T13:47:32.839Z,18.92
2023-06-07T13:48:32.894Z,19.49
2023-06-07T13:49:32.797Z,19.09
2023-06-07T13:50:32.860Z,18.85
2023-06-07T13:51:32.762Z,20.45
2023-06-07T13:52:32.771Z,20.45
2023-06-07T13:53:32.769Z,21.26
2023-06-07T13:54:32.784Z,21.88
2023-06-07T13:55:32.725Z,23.20
2023-06-07T13:56:32.763Z,24.21
2023-06-07T13:57:32.761Z,25.11
2023-06-07T13:58:32.723Z,25.02
2023-06-07T13:59:32.806Z,25.62
2023-06-07T14:00:32.703Z,26.11
2023-06-07T14:01:32.746Z,25.21
2023-06-07T14:02:32.984Z,24.38
2023-06-07T14:03:32.901Z,23.38
2023-06-07T14:04:32.670Z,23.18
2023-06-07T14:05:32.686Z,24.13
2023-06-07T14:06:32.624Z,23.05
2023-06-07T14:07:32.629Z,23.88
2023-06-07T14:08:32.673Z,25.18
2023-06-07T14:09:32.579Z,24.16
2023-06-07T14:10:32.589Z,24.51
2023-06-07T14:11:32.575Z,22.90
2023-06-07T14:12:32.575Z,20.92
2023-06-07T14:13:35.570Z,20.03
2023-06-07T14:14:32.592Z,19.52
2023-06-07T14:15:32.603Z,19.11
2023-06-07T14:16:32.557Z,18.51
2023-06-07T14:17:32.687Z,18.51
2023-06-07T14:18:32.521Z,18.54
2023-06-07T14:19:32.605Z,20.15
2023-06-07T14:20:32.533Z,21.15
2023-06-07T14:21:32.495Z,20.36
2023-06-07T14:22:32.474Z,20.64
2023-06-07T14:23:32.471Z,20.04
2023-06-07T14:24:32.467Z,19.83
2023-06-07T14:25:32.466Z,19.63
2023-06-07T14:26:32.524Z,19.23
2023-06-07T14:27:32.464Z,19.64
2023-06-07T14:28:32.473Z,20.15
2023-06-07T14:29:32.395Z,21.06
2023-06-07T14:30:32.400Z,21.37
2023-06-07T14:31:32.471Z,22.31
2023-06-07T14:32:32.385Z,23.53
2023-06-07T14:33:32.902Z,25.11
2023-06-07T14:34:32.349Z,24.51
2023-06-07T14:35:33.115Z,23.49
2023-06-07T14:36:32.352Z,22.87
2023-06-07T14:37:32.349Z,22.77
2023-06-07T14:38:32.322Z,23.79
2023-06-07T14:39:32.306Z,24.79
2023-06-07T14:40:32.331Z,25.29
2023-06-07T14:41:32.282Z,25.78
2023-06-07T14:42:32.331Z,24.90
2023-06-07T14:43:32.255Z,25.20
2023-06-07T14:44:32.293Z,24.82
2023-06-07T14:45:32.235Z,25.44
2023-06-07T14:46:32.229Z,26.07
2023-06-07T14:47:32.315Z,25.74
2023-06-07T14:48:32.267Z,24.71
2023-06-07T14:49:32.191Z,24.09
2023-06-07T14:50:33.024Z,24.98
2023-06-07T14:51:32.201Z,25.28
2023-06-07T14:52:32.207Z,24.57
2023-06-07T14:53:32.197Z,23.35
2023-06-07T14:54:32.157Z,22.45
2023-06-07T14:55:32.136Z,22.64
2023-06-07T14:56:32.134Z,22.25
2023-06-07T14:57:32.134Z,22.12
2023-06-07T14:58:32.100Z,22.69
2023-06-07T14:59:32.101Z,22.24
2023-06-07T15:00:32.206Z,22.66
2023-06-07T15:01:32.115Z,23.77
2023-06-07T15:02:32.114Z,24.77
2023-06-07T15:03:32.069Z,24.58
2023-06-07T15:04:32.092Z,24.59
2023-06-07T15:05:32.054Z,24.27
2023-06-07T15:06:32.056Z,23.15
2023-06-07T15:07:32.052Z,22.55
2023-06-07T15:08:32.176Z,23.02
2023-06-07T15:09:32.094Z,22.34
2023-06-07T15:10:32.008Z,22.74
2023-06-07T15:11:31.986Z,23.91
2023-06-07T15:12:31.976Z,22.42
2023-06-07T15:13:31.953Z,21.43
2023-06-07T15:14:32.006Z,20.83
2023-06-07T15:15:31.943Z,20.51
2023-06-07T15:16:32.025Z,20.90
2023-06-07T15:17:31.989Z,20.88
2023-06-07T15:18:31.910Z,19.99
2023-06-07T15:19:31.915Z,19.58
2023-06-07T15:20:31.895Z,19.47
2023-06-07T15:21:31.876Z,18.59
2023-06-07T15:22:31.854Z,19.58
2023-06-07T15:23:31.925Z,19.32
2023-06-07T15:24:31.874Z,20.32
2023-06-07T15:25:31.964Z,22.12
2023-06-07T15:26:31.850Z,21.66
2023-06-07T15:27:31.844Z,22.05
2023-06-07T15:28:31.828Z,21.44
2023-06-07T15:29:31.855Z,20.94
2023-06-07T15:30:31.811Z,21.66
2023-06-07T15:31:31.844Z,22.96
2023-06-07T15:32:31.838Z,23.66
2023-06-07T15:33:31.809Z,23.69
2023-06-07T15:34:31.775Z,23.99
2023-06-07T15:35:31.751Z,24.68
2023-06-07T15:36:31.728Z,24.30
2023-06-07T15:37:31.740Z,25.42
2023-06-07T15:38:31.721Z,26.51
2023-06-07T15:39:31.747Z,26.31
2023-06-07T15:40:31.697Z,26.31
2023-06-07T15:41:31.683Z,27.29
2023-06-07T15:42:31.691Z,26.29
2023-06-07T15:43:31.788Z,25.71
2023-06-07T15:44:31.710Z,25.92
2023-06-07T15:45:31.732Z,26.12
2023-06-07T15:46:31.740Z,26.23
2023-06-07T15:47:31.668Z,25.57
2023-06-07T15:48:31.631Z,24.16
2023-06-07T15:49:31.660Z,23.57
2023-06-07T15:50:31.722Z,23.87
2023-06-07T15:51:31.636Z,24.19
2023-06-07T15:52:31.653Z,24.70
2023-06-07T15:53:31.614Z,25.43
2023-06-07T15:54:31.599Z,27.32
2023-06-07T15:55:31.569Z,26.74
2023-06-07T15:56:31.531Z,27.82
2023-06-07T15:57:31.536Z,27.72
2023-06-07T15:58:31.541Z,27.23
2023-06-07T15:59:31.526Z,27.71
2023-06-07T16:00:38.441Z,26.92
2023-06-07T16:01:31.632Z,27.11
2023-06-07T16:02:31.581Z,27.11
2023-06-07T16:03:46.374Z,25.92
2023-06-07T16:04:31.511Z,25.92
2023-06-07T16:05:31.560Z,26.12
2023-06-07T16:06:31.419Z,27.50
2023-06-07T16:07:31.430Z,26.43
2023-06-07T16:08:31.636Z,26.34
2023-06-07T16:09:31.474Z,26.74
2023-06-07T16:10:31.764Z,27.25
2023-06-07T16:11:31.454Z,27.84
2023-06-07T16:12:31.376Z,27.56
2023-06-07T16:13:31.373Z,29.11
2023-06-07T16:14:31.367Z,29.31
2023-06-07T16:15:31.386Z,27.92
2023-06-07T16:16:31.368Z,27.23
2023-06-07T16:17:31.342Z,27.12
2023-06-07T16:18:31.357Z,27.50
2023-06-07T16:19:31.361Z,26.51
2023-06-07T16:20:32.247Z,26.41
2023-06-07T16:21:31.290Z,25.92
2023-06-07T16:22:31.324Z,26.01
2023-06-07T16:23:31.313Z,25.72
2023-06-07T16:24:31.209Z,27.19
2023-06-07T16:25:31.331Z,26.32
2023-06-07T16:26:31.213Z,26.64
2023-06-07T16:27:31.230Z,26.67
2023-06-07T16:28:31.201Z,27.26
2023-06-07T16:29:31.191Z,27.56
2023-06-07T16:30:31.239Z,27.95
2023-06-07T16:31:31.295Z,28.26
2023-06-07T16:32:31.176Z,28.36
2023-06-07T16:33:31.159Z,28.36
2023-06-07T16:34:31.151Z,29.24
2023-06-07T16:35:31.151Z,28.16
2023-06-07T16:36:31.150Z,28.55
2023-06-07T16:37:31.090Z,28.93
2023-06-07T16:38:31.084Z,28.05
2023-06-07T16:39:31.105Z,28.34
2023-06-07T16:40:31.100Z,28.13
2023-06-07T16:41:31.049Z,27.25
2023-06-07T16:42:31.026Z,27.74
2023-06-07T16:43:31.030Z,28.42
2023-06-07T16:44:31.147Z,27.66
2023-06-07T16:45:31.003Z,28.44
2023-06-07T16:46:31.090Z,28.05
2023-06-07T16:47:31.103Z,27.75
2023-06-07T16:48:31.000Z,27.85
2023-06-07T16:49:30.999Z,28.74
2023-06-07T16:50:30.951Z,28.83
2023-06-07T16:51:31.048Z,29.05
2023-06-07T16:52:30.955Z,29.24